< < Back
Terminal Aerodrome Forecast


Current Version              Previous Versions:   1  2  3  4  5  6  7  8  9  

Terminal Aerodrome Forecast

825
FTUS42 KFFC 242328
TAFMCN
TAF
KMCN 242328Z 2500/2524 19004KT P6SM FEW090 BKN150
     FM250600 16003KT P6SM VCSH BKN070
     FM250900 15005KT 6SM -RA BR SCT020 OVC050
      TEMPO 2512/2516 3SM SHRA BR BKN020
     FM251700 23008KT P6SM VCSH SCT015 BKN035 PROB30 2520/2524
      VRB15G25KT 2SM TSRA BR BKN015CB=



Latest METAR

144
SAUS80 KWBC 251100
MTRMCN
METAR KMCN 251053Z AUTO 13005KT 10SM BKN060 BKN070 OVC100 16/14 A2987
RMK AO2 RAB29E42 SLP110 P0000 T01610139 TSNO $


USA.gov is the U.S. government's official web portal to all federal, state and local government web resources and services.